createdAt,value
2022-11-04T00:01:27.308Z,9.24
2022-11-04T00:04:28.770Z,9.31
2022-11-04T00:07:48.922Z,9.35
2022-11-04T00:11:17.928Z,9.34
2022-11-04T00:14:19.545Z,9.35
2022-11-04T00:17:23.109Z,9.21
2022-11-04T00:20:43.318Z,9.33
2022-11-04T00:24:03.091Z,9.25
2022-11-04T00:27:22.849Z,9.36
2022-11-04T00:30:24.214Z,9.21
2022-11-04T00:33:25.855Z,9.06
2022-11-04T00:36:27.170Z,8.95
2022-11-04T00:39:28.734Z,8.90
2022-11-04T00:42:30.071Z,8.95
2022-11-04T00:45:31.464Z,8.85
2022-11-04T00:48:32.799Z,8.80
2022-11-04T00:51:34.152Z,8.75
2022-11-04T00:54:35.529Z,8.76
2022-11-04T00:57:36.887Z,8.72
2022-11-04T01:00:38.251Z,8.72
2022-11-04T01:03:39.732Z,8.69
2022-11-04T01:06:41.538Z,8.59
2022-11-04T01:09:42.874Z,8.53
2022-11-04T01:12:44.219Z,8.51
2022-11-04T01:15:45.666Z,8.54
2022-11-04T01:18:47.005Z,8.52
2022-11-04T01:21:52.323Z,8.52
2022-11-04T01:24:53.669Z,8.46
2022-11-04T01:27:55.400Z,8.39
2022-11-04T01:30:56.749Z,8.37
2022-11-04T01:33:58.708Z,8.38
2022-11-04T01:37:00.047Z,8.26
2022-11-04T01:40:01.403Z,8.23
2022-11-04T01:43:02.761Z,8.16
2022-11-04T01:46:04.103Z,8.11
2022-11-04T01:49:17.291Z,7.93
2022-11-04T01:52:19.963Z,7.86
2022-11-04T01:55:22.988Z,7.79
2022-11-04T01:58:28.522Z,7.68
2022-11-04T02:01:29.933Z,7.59
2022-11-04T02:04:31.369Z,7.64
2022-11-04T02:07:32.700Z,7.65
2022-11-04T02:10:34.020Z,8.21
2022-11-04T02:13:35.792Z,8.23
2022-11-04T02:16:41.555Z,8.12
2022-11-04T02:19:55.292Z,8.11
2022-11-04T02:22:56.964Z,8.11
2022-11-04T02:26:16.334Z,8.09
2022-11-04T02:29:20.393Z,7.98
2022-11-04T02:32:27.426Z,7.93
2022-11-04T02:35:34.743Z,7.77
2022-11-04T02:38:52.423Z,7.61
2022-11-04T02:41:56.597Z,7.50
2022-11-04T02:45:00.091Z,7.38
2022-11-04T02:48:03.106Z,7.30
2022-11-04T02:51:43.079Z,7.33
2022-11-04T02:54:46.139Z,7.26
2022-11-04T02:57:47.497Z,7.21
2022-11-04T03:00:48.870Z,7.19
2022-11-04T03:03:52.100Z,7.16
2022-11-04T03:06:53.614Z,7.14
2022-11-04T03:09:55.995Z,7.08
2022-11-04T03:12:59.569Z,7.08
2022-11-04T03:16:02.829Z,6.96
2022-11-04T03:19:19.395Z,6.89
2022-11-04T03:22:21.341Z,6.92
2022-11-04T03:25:23.701Z,6.88
2022-11-04T03:28:35.266Z,6.85
2022-11-04T03:31:44.203Z,6.84
2022-11-04T03:34:45.522Z,6.87
2022-11-04T03:37:47.387Z,6.74
2022-11-04T03:40:48.917Z,6.70
2022-11-04T03:43:50.275Z,6.69
2022-11-04T03:46:52.621Z,6.72
2022-11-04T03:49:56.025Z,6.72
2022-11-04T03:52:57.456Z,6.65
2022-11-04T03:56:08.175Z,6.70
2022-11-04T03:59:12.620Z,6.66
2022-11-04T04:02:15.187Z,6.61
2022-11-04T04:05:19.624Z,6.70
2022-11-04T04:08:20.930Z,6.61
2022-11-04T04:11:31.429Z,6.61
2022-11-04T04:14:39.994Z,6.55
2022-11-04T04:17:52.356Z,6.55
2022-11-04T04:20:53.670Z,6.60
2022-11-04T04:24:13.794Z,6.53
2022-11-04T04:27:33.353Z,6.56
2022-11-04T04:30:34.689Z,6.53
2022-11-04T04:33:36.043Z,6.49
2022-11-04T04:36:41.374Z,6.51
2022-11-04T04:40:02.536Z,6.50
2022-11-04T04:43:22.652Z,6.47
2022-11-04T04:46:23.994Z,6.51
2022-11-04T04:49:34.951Z,6.49
2022-11-04T04:52:40.416Z,6.47
2022-11-04T04:55:42.084Z,6.42
2022-11-04T04:58:43.459Z,6.45
2022-11-04T05:01:44.896Z,6.45
2022-11-04T05:04:46.320Z,6.37
2022-11-04T05:07:47.673Z,6.41
2022-11-04T05:10:49.043Z,6.29
2022-11-04T05:13:50.417Z,6.26
2022-11-04T05:16:51.794Z,6.10
2022-11-04T05:19:53.289Z,6.13
2022-11-04T05:22:54.689Z,6.16
2022-11-04T05:25:57.914Z,6.20
2022-11-04T05:28:59.325Z,6.18
2022-11-04T05:32:00.658Z,6.18
2022-11-04T05:35:02.057Z,6.18
2022-11-04T05:38:03.470Z,6.24
2022-11-04T05:41:05.094Z,6.27
2022-11-04T05:44:08.480Z,6.22
2022-11-04T05:47:09.989Z,6.19
2022-11-04T05:50:11.330Z,6.21
2022-11-04T05:53:13.072Z,6.27
2022-11-04T05:56:14.604Z,6.30
2022-11-04T05:59:15.947Z,6.26
2022-11-04T06:02:17.420Z,6.31
2022-11-04T06:05:18.836Z,6.29
2022-11-04T06:08:20.224Z,6.25
2022-11-04T06:11:21.569Z,6.21
2022-11-04T06:14:24.146Z,6.27
2022-11-04T06:17:25.502Z,6.30
2022-11-04T06:20:26.837Z,6.25
2022-11-04T06:23:28.197Z,6.28
2022-11-04T06:26:30.856Z,6.33
2022-11-04T06:29:32.578Z,6.35
2022-11-04T06:32:33.906Z,6.37
2022-11-04T06:35:35.214Z,6.37
2022-11-04T06:38:37.564Z,6.40
2022-11-04T06:41:38.911Z,6.41
2022-11-04T06:44:40.245Z,6.40
2022-11-04T06:47:41.586Z,6.42
2022-11-04T06:50:42.896Z,6.41
2022-11-04T06:53:44.263Z,6.43
2022-11-04T06:56:45.648Z,6.45
2022-11-04T06:59:46.994Z,6.49
2022-11-04T07:02:48.444Z,6.51
2022-11-04T07:05:50.017Z,6.57
2022-11-04T07:08:51.648Z,6.58
2022-11-04T07:11:53.192Z,6.60
2022-11-04T07:14:56.393Z,6.61
2022-11-04T07:17:58.432Z,6.61
2022-11-04T07:20:59.775Z,6.63
2022-11-04T07:24:01.538Z,6.65
2022-11-04T07:27:02.870Z,6.66
2022-11-04T07:30:04.276Z,6.71
2022-11-04T07:33:05.653Z,6.72
2022-11-04T07:36:08.085Z,6.76
2022-11-04T07:39:09.457Z,6.85
2022-11-04T07:42:11.288Z,6.90
2022-11-04T07:45:12.628Z,6.96
2022-11-04T07:48:14.010Z,7.04
2022-11-04T07:51:16.435Z,7.10
2022-11-04T07:54:17.862Z,7.12
2022-11-04T07:57:19.199Z,7.20
2022-11-04T08:00:20.553Z,7.25
2022-11-04T08:03:21.946Z,7.33
2022-11-04T08:06:23.323Z,7.42
2022-11-04T08:09:24.705Z,7.43
2022-11-04T08:12:27.714Z,7.55
2022-11-04T08:15:29.264Z,7.73
2022-11-04T08:18:31.012Z,7.91
2022-11-04T08:21:32.468Z,8.01
2022-11-04T08:24:34.042Z,8.13
2022-11-04T08:27:35.439Z,8.32
2022-11-04T08:30:36.893Z,8.48
2022-11-04T08:33:38.312Z,8.56
2022-11-04T08:36:40.961Z,8.66
2022-11-04T08:39:42.612Z,8.82
2022-11-04T08:42:44.018Z,9.37
2022-11-04T08:45:45.684Z,9.86
2022-11-04T08:48:47.117Z,9.54
2022-11-04T08:51:54.344Z,9.29
2022-11-04T08:54:57.440Z,9.59
2022-11-04T08:57:59.295Z,9.92
2022-11-04T09:01:03.614Z,10.60
2022-11-04T09:04:05.405Z,11.96
2022-11-04T09:07:08.207Z,12.86
2022-11-04T09:10:10.147Z,12.70
2022-11-04T09:13:12.056Z,12.85
2022-11-04T09:16:13.764Z,13.41
2022-11-04T09:19:15.124Z,13.20
2022-11-04T09:22:16.729Z,12.93
2022-11-04T09:25:18.170Z,12.12
2022-11-04T09:28:19.508Z,12.11
2022-11-04T09:31:21.317Z,12.75
2022-11-04T09:34:22.655Z,11.42
2022-11-04T09:37:24.005Z,11.01
2022-11-04T09:40:25.449Z,10.77
2022-11-04T09:43:26.772Z,10.71
2022-11-04T09:46:28.125Z,10.60
2022-11-04T09:49:29.973Z,10.95
2022-11-04T09:52:31.668Z,10.99
2022-11-04T09:55:35.593Z,10.76
2022-11-04T09:58:37.287Z,11.39
2022-11-04T10:01:57.609Z,11.80
2022-11-04T10:05:03.807Z,12.00
2022-11-04T10:08:05.080Z,11.75
2022-11-04T10:11:18.599Z,11.60
2022-11-04T10:14:22.902Z,11.74
2022-11-04T10:17:31.692Z,11.59
2022-11-04T10:20:50.228Z,11.41
2022-11-04T10:24:10.144Z,11.16
2022-11-04T10:27:18.774Z,10.81
2022-11-04T10:30:23.676Z,10.83
2022-11-04T10:33:24.976Z,10.75
2022-11-04T10:36:26.342Z,10.77
2022-11-04T10:39:30.671Z,10.87
2022-11-04T10:42:32.047Z,10.80
2022-11-04T10:45:44.933Z,10.90
2022-11-04T10:48:59.565Z,10.93
2022-11-04T10:52:00.918Z,11.03
2022-11-04T10:55:02.358Z,10.68
2022-11-04T10:58:03.798Z,11.24
2022-11-04T11:01:23.680Z,11.72
2022-11-04T11:04:33.287Z,12.61
2022-11-04T11:07:37.703Z,12.71
2022-11-04T11:10:39.027Z,12.61
2022-11-04T11:13:41.179Z,12.18
2022-11-04T11:16:42.673Z,11.95
2022-11-04T11:19:54.425Z,11.77
2022-11-04T11:23:01.923Z,11.51
2022-11-04T11:26:07.141Z,11.38
2022-11-04T11:29:10.562Z,11.19
2022-11-04T11:32:25.213Z,11.20
2022-11-04T11:35:31.571Z,11.27
2022-11-04T11:38:33.404Z,11.27
2022-11-04T11:41:39.572Z,11.21
2022-11-04T11:44:48.091Z,11.22
2022-11-04T11:47:54.877Z,11.21
2022-11-04T11:51:00.108Z,11.06
2022-11-04T11:54:04.460Z,10.91
2022-11-04T11:57:14.697Z,10.84
2022-11-04T12:10:51.011Z,10.73
2022-11-04T12:13:54.597Z,10.81
2022-11-04T12:17:02.878Z,10.72
2022-11-04T12:20:24.780Z,10.58
2022-11-04T12:23:44.597Z,10.60
2022-11-04T12:26:46.178Z,10.48
2022-11-04T12:29:51.929Z,10.59
2022-11-04T12:32:56.253Z,10.59
2022-11-04T12:36:17.903Z,10.69
2022-11-04T12:39:37.563Z,10.65
2022-11-04T12:42:46.216Z,10.91
2022-11-04T12:45:56.594Z,10.86
2022-11-04T12:49:07.470Z,10.85
2022-11-04T12:52:08.932Z,10.85
2022-11-04T12:55:13.158Z,10.49
2022-11-04T12:58:33.662Z,10.68
2022-11-04T13:01:37.555Z,10.84
2022-11-04T13:04:40.127Z,10.65
2022-11-04T13:07:43.912Z,10.92
2022-11-04T13:10:48.114Z,10.69
2022-11-04T13:13:50.845Z,10.92
2022-11-04T13:16:52.219Z,11.15
2022-11-04T13:19:54.142Z,11.35
2022-11-04T13:23:02.844Z,11.01
2022-11-04T13:26:05.236Z,10.70
2022-11-04T13:29:09.126Z,10.68
2022-11-04T13:32:29.558Z,10.93
2022-11-04T13:35:40.205Z,10.66
2022-11-04T13:38:42.520Z,10.90
2022-11-04T13:42:02.645Z,11.00
2022-11-04T13:45:05.322Z,11.25
2022-11-04T13:48:06.704Z,11.14
2022-11-04T13:51:12.104Z,11.25
2022-11-04T13:54:28.078Z,11.44
2022-11-04T13:57:30.480Z,11.52
2022-11-04T14:00:32.379Z,11.65
2022-11-04T14:03:36.817Z,11.67
2022-11-04T14:06:47.741Z,11.36
2022-11-04T14:09:53.294Z,11.06
2022-11-04T14:12:54.650Z,10.98
2022-11-04T14:16:05.674Z,11.17
2022-11-04T14:19:25.816Z,11.20
2022-11-04T14:22:34.100Z,11.10
2022-11-04T14:25:41.588Z,10.92
2022-11-04T14:28:43.452Z,10.82
2022-11-04T14:31:46.639Z,10.83
2022-11-04T14:34:47.983Z,10.80
2022-11-04T14:37:55.631Z,10.75
2022-11-04T14:41:12.709Z,10.53
2022-11-04T14:44:15.398Z,10.41
2022-11-04T14:47:18.474Z,10.21
2022-11-04T14:50:21.010Z,10.22
2022-11-04T14:53:23.745Z,10.16
2022-11-04T14:56:26.873Z,10.08
2022-11-04T14:59:28.901Z,9.87
2022-11-04T15:02:31.341Z,9.90
2022-11-04T15:05:36.284Z,9.89
2022-11-04T15:08:38.523Z,9.78
2022-11-04T15:11:58.614Z,9.76
2022-11-04T15:14:59.986Z,9.70
2022-11-04T15:18:08.371Z,9.60
2022-11-04T15:21:10.462Z,9.58
2022-11-04T15:24:15.021Z,9.46
2022-11-04T15:27:19.993Z,9.31
2022-11-04T15:30:22.540Z,9.28
2022-11-04T15:33:23.868Z,9.25
2022-11-04T15:36:25.174Z,9.21
2022-11-04T15:39:30.717Z,9.19
2022-11-04T15:42:43.064Z,9.17
2022-11-04T15:45:47.468Z,9.05
2022-11-04T15:49:07.317Z,8.98
2022-11-04T15:52:09.055Z,8.96
2022-11-04T15:55:20.067Z,8.94
2022-11-04T15:58:21.524Z,8.81
2022-11-04T16:01:23.026Z,8.76
2022-11-04T16:04:25.057Z,8.72
2022-11-04T16:07:29.368Z,8.71
2022-11-04T16:10:31.549Z,8.66
2022-11-04T16:13:32.907Z,8.63
2022-11-04T16:16:34.244Z,8.61
2022-11-04T16:19:35.674Z,8.63
2022-11-04T16:22:38.856Z,8.59
2022-11-04T16:25:40.226Z,8.61
2022-11-04T16:28:41.558Z,8.61
2022-11-04T16:31:43.294Z,8.61
2022-11-04T16:34:45.760Z,8.63
2022-11-04T16:37:47.600Z,8.59
2022-11-04T16:40:49.385Z,8.52
2022-11-04T16:43:50.721Z,8.51
2022-11-04T16:46:52.182Z,8.43
2022-11-04T16:49:53.552Z,8.41
2022-11-04T16:52:54.890Z,8.36
2022-11-04T16:55:56.587Z,8.27
2022-11-04T16:58:57.921Z,8.17
2022-11-04T17:01:59.343Z,8.10
2022-11-04T17:05:00.810Z,8.03
2022-11-04T17:08:05.140Z,7.96
2022-11-04T17:11:07.855Z,7.91
2022-11-04T17:14:09.180Z,7.91
2022-11-04T17:17:10.583Z,7.95
2022-11-04T17:20:12.631Z,7.96
2022-11-04T17:23:14.186Z,7.81
2022-11-04T17:26:15.765Z,7.76
2022-11-04T17:29:17.653Z,7.70
2022-11-04T17:32:20.042Z,7.73
2022-11-04T17:35:22.300Z,7.80
2022-11-04T17:38:23.767Z,7.78
2022-11-04T17:41:43.788Z,7.82
2022-11-04T17:44:45.126Z,7.82
2022-11-04T17:47:46.517Z,7.85
2022-11-04T17:50:47.871Z,7.80
2022-11-04T17:53:49.207Z,7.69
2022-11-04T17:56:50.644Z,7.75
2022-11-04T17:59:52.206Z,7.82
2022-11-04T18:02:53.748Z,7.85
2022-11-04T18:05:58.676Z,7.87
2022-11-04T18:09:00.756Z,7.91
2022-11-04T18:12:20.927Z,7.86
2022-11-04T18:15:22.314Z,7.86
2022-11-04T18:18:23.652Z,7.81
2022-11-04T18:21:25.049Z,7.82
2022-11-04T18:24:26.534Z,7.86
2022-11-04T18:27:27.911Z,7.81
2022-11-04T18:30:29.276Z,7.81
2022-11-04T18:33:30.983Z,7.85
2022-11-04T18:36:33.740Z,7.90
2022-11-04T18:39:35.134Z,7.89
2022-11-04T18:42:36.481Z,7.87
2022-11-04T18:45:37.848Z,7.89
2022-11-04T18:48:39.316Z,7.84
2022-11-04T18:51:40.783Z,7.89
2022-11-04T18:54:45.237Z,7.93
2022-11-04T18:57:46.563Z,7.91
2022-11-04T19:00:47.899Z,7.92
2022-11-04T19:03:49.478Z,7.87
2022-11-04T19:06:50.837Z,7.75
2022-11-04T19:09:52.210Z,7.71
2022-11-04T19:13:12.119Z,7.62
2022-11-04T19:16:13.462Z,7.55
2022-11-04T19:19:17.814Z,7.51
2022-11-04T19:22:19.154Z,7.47
2022-11-04T19:25:20.515Z,7.53
2022-11-04T19:28:40.498Z,7.52
2022-11-04T19:31:43.138Z,7.51
2022-11-04T19:34:44.511Z,7.47
2022-11-04T19:37:45.887Z,7.47
2022-11-04T19:40:51.846Z,7.43
2022-11-04T19:43:53.496Z,7.45
2022-11-04T19:46:54.848Z,7.33
2022-11-04T19:49:56.241Z,7.32
2022-11-04T19:52:57.584Z,7.32
2022-11-04T19:55:59.016Z,7.20
2022-11-04T19:59:05.593Z,7.16
2022-11-04T20:02:07.663Z,7.20
2022-11-04T20:05:09.351Z,7.18
2022-11-04T20:08:11.158Z,7.20
2022-11-04T20:11:13.030Z,7.13
2022-11-04T20:14:14.395Z,7.17
2022-11-04T20:17:15.748Z,7.15
2022-11-04T20:20:17.285Z,7.10
2022-11-04T20:23:18.622Z,7.05
2022-11-04T20:26:20.995Z,7.09
2022-11-04T20:29:22.366Z,7.10
2022-11-04T20:32:23.686Z,7.05
2022-11-04T20:35:25.054Z,7.10
2022-11-04T20:38:26.370Z,7.09
2022-11-04T20:41:27.772Z,7.12
2022-11-04T20:44:29.139Z,7.14
2022-11-04T20:47:30.504Z,7.17
2022-11-04T20:50:31.876Z,7.17
2022-11-04T20:53:33.202Z,7.13
2022-11-04T20:56:35.173Z,7.08
2022-11-04T20:59:36.548Z,7.12
2022-11-04T21:02:37.984Z,6.99
2022-11-04T21:05:39.871Z,7.01
2022-11-04T21:08:41.266Z,7.08
2022-11-04T21:11:42.695Z,7.09
2022-11-04T21:14:44.033Z,7.06
2022-11-04T21:17:45.433Z,7.03
2022-11-04T21:20:46.809Z,7.07
2022-11-04T21:23:48.675Z,7.06
2022-11-04T21:26:50.163Z,6.91
2022-11-04T21:29:51.555Z,6.94
2022-11-04T21:32:52.866Z,6.96
2022-11-04T21:35:54.262Z,7.05
2022-11-04T21:38:55.783Z,6.95
2022-11-04T21:41:57.102Z,6.87
2022-11-04T21:44:58.474Z,6.88
2022-11-04T21:47:59.807Z,6.95
2022-11-04T21:51:05.143Z,6.99
2022-11-04T21:54:07.024Z,6.98
2022-11-04T21:57:08.350Z,6.95
2022-11-04T22:00:10.306Z,6.94
2022-11-04T22:03:11.959Z,6.92
2022-11-04T22:06:13.493Z,6.93
2022-11-04T22:09:14.861Z,6.94
2022-11-04T22:12:16.216Z,6.91
2022-11-04T22:15:37.727Z,6.87
2022-11-04T22:18:39.135Z,6.84
2022-11-04T22:21:41.012Z,6.90
2022-11-04T22:24:42.860Z,6.91
2022-11-04T22:27:44.194Z,6.90
2022-11-04T22:30:45.560Z,6.86
2022-11-04T22:33:46.911Z,6.87
2022-11-04T22:36:48.246Z,6.92
2022-11-04T22:39:49.588Z,6.91
2022-11-04T22:42:51.086Z,6.89
2022-11-04T22:45:54.626Z,6.89
2022-11-04T22:48:55.998Z,6.86
2022-11-04T22:51:57.314Z,6.89
2022-11-04T22:54:58.694Z,6.93
2022-11-04T22:58:00.032Z,6.91
2022-11-04T23:01:06.165Z,6.95
2022-11-04T23:04:11.782Z,6.96
2022-11-04T23:07:13.284Z,6.91
2022-11-04T23:10:33.212Z,6.93
2022-11-04T23:13:53.368Z,6.94
2022-11-04T23:17:13.537Z,6.95
2022-11-04T23:20:15.070Z,6.91
2022-11-04T23:23:35.122Z,6.88
2022-11-04T23:26:36.438Z,6.84
2022-11-04T23:29:56.219Z,6.86
2022-11-04T23:32:58.278Z,6.86
2022-11-04T23:36:18.400Z,6.74
2022-11-04T23:39:19.778Z,6.81
2022-11-04T23:42:21.297Z,6.81
2022-11-04T23:45:41.446Z,6.76
2022-11-04T23:49:01.545Z,6.73
2022-11-04T23:52:38.403Z,6.74
2022-11-04T23:55:58.201Z,6.80
2022-11-04T23:59:18.227Z,6.78
